Time,TemperatureF,DewpointF,PressureIn,WindDirection,WindDirectionDegrees,WindSpeedMPH,WindSpeedGustMPH,Humidity,HourlyPrecipIn,Conditions,Clouds,dailyrainin,SolarRadiationWatts/m^2,SoftwareType,DateUTC
2013-04-13 00:00:00,44.7,19.3,29.47,SSW,208,13.0,14.0,36,0.00,,,0.00,0,Wunderground v.1.15,2013-04-13 06:00:00,
2013-04-13 00:05:00,45.3,18.5,29.48,SSW,204,14.0,21.0,34,0.00,,,0.00,0,Wunderground v.1.15,2013-04-13 06:05:00,
2013-04-13 00:15:00,45.7,18.2,29.47,SW,228,15.0,15.0,33,0.00,,,0.00,0,Wunderground v.1.15,2013-04-13 06:15:00,
2013-04-13 00:25:00,45.8,18.3,29.47,SE,141,15.0,17.0,33,0.00,,,0.00,0,Wunderground v.1.15,2013-04-13 06:25:00,
2013-04-13 00:30:00,45.9,18.4,29.46,SSE,162,14.0,14.0,33,0.00,,,0.00,0,Wunderground v.1.15,2013-04-13 06:30:00,
2013-04-13 00:45:00,45.9,16.9,29.46,South,169,12.0,14.0,31,0.00,,,0.00,0,Wunderground v.1.15,2013-04-13 06:45:00,
2013-04-13 00:55:00,46.1,17.8,29.45,WSW,242,12.0,23.0,32,0.00,,,0.00,0,Wunderground v.1.15,2013-04-13 06:55:00,
2013-04-13 01:00:00,46.1,17.8,29.45,South,189,14.0,14.0,32,0.00,,,0.00,0,Wunderground v.1.15,2013-04-13 07:00:00,
2013-04-13 01:05:00,46.2,17.9,29.44,SSW,212,13.0,18.0,32,0.00,,,0.00,0,Wunderground v.1.15,2013-04-13 07:05:00,
2013-04-13 01:15:00,46.4,18.1,29.44,SW,235,14.0,23.0,32,0.00,,,0.00,0,Wunderground v.1.15,2013-04-13 07:15:00,
2013-04-13 01:20:00,46.6,17.5,29.45,WSW,251,15.0,22.0,31,0.00,,,0.00,0,Wunderground v.1.15,2013-04-13 07:20:00,
2013-04-13 01:25:00,46.6,18.3,29.44,SSE,156,15.0,22.0,32,0.00,,,0.00,0,Wunderground v.1.15,2013-04-13 07:25:00,
2013-04-13 01:35:00,46.5,18.2,29.43,SE,140,15.0,22.0,32,0.00,,,0.00,0,Wunderground v.1.15,2013-04-13 07:35:00,
2013-04-13 01:40:00,46.5,18.2,29.44,SW,215,15.0,15.0,32,0.00,,,0.00,0,Wunderground v.1.15,2013-04-13 07:40:00,
2013-04-13 01:50:00,46.6,19.0,29.43,West,266,14.0,14.0,33,0.00,,,0.00,0,Wunderground v.1.15,2013-04-13 07:50:00,
2013-04-13 02:00:00,46.4,19.5,29.43,West,261,16.0,16.0,34,0.00,,,0.00,0,Wunderground v.1.15,2013-04-13 08:00:00,
2013-04-13 02:05:00,46.0,19.8,29.42,SW,228,15.0,16.0,35,0.00,,,0.00,0,Wunderground v.1.15,2013-04-13 08:05:00,
2013-04-13 02:15:00,45.5,20.7,29.42,SSE,151,15.0,18.0,37,0.00,,,0.00,0,Wunderground v.1.15,2013-04-13 08:15:00,
2013-04-13 02:25:00,45.1,21.0,29.42,South,169,10.0,13.0,38,0.00,,,0.00,0,Wunderground v.1.15,2013-04-13 08:25:00,
2013-04-13 02:30:00,45.2,21.1,29.41,SW,216,11.0,11.0,38,0.00,,,0.00,0,Wunderground v.1.15,2013-04-13 08:30:00,
2013-04-13 02:40:00,44.7,21.8,29.41,SW,224,15.0,15.0,40,0.00,,,0.00,0,Wunderground v.1.15,2013-04-13 08:40:00,
2013-04-13 02:45:00,44.5,22.2,29.40,SSW,198,17.0,17.0,41,0.00,,,0.00,0,Wunderground v.1.15,2013-04-13 08:45:00,
2013-04-13 02:55:00,44.1,23.0,29.38,South,180,17.0,21.0,43,0.00,,,0.00,0,Wunderground v.1.15,2013-04-13 08:55:00,
2013-04-13 03:00:00,44.1,23.0,29.38,South,175,16.0,16.0,43,0.00,,,0.00,0,Wunderground v.1.15,2013-04-13 09:00:00,
2013-04-13 03:10:00,44.1,23.0,29.37,SSW,202,15.0,15.0,43,0.00,,,0.00,0,Wunderground v.1.15,2013-04-13 09:10:00,
2013-04-13 03:20:00,44.2,23.6,29.36,SSE,164,15.0,15.0,44,0.00,,,0.00,0,Wunderground v.1.15,2013-04-13 09:20:00,
2013-04-13 03:25:00,44.2,23.6,29.37,SW,222,14.0,18.0,44,0.00,,,0.00,0,Wunderground v.1.15,2013-04-13 09:25:00,
2013-04-13 03:30:00,44.4,23.8,29.35,SW,215,15.0,21.0,44,0.00,,,0.00,0,Wunderground v.1.15,2013-04-13 09:30:00,
2013-04-13 03:40:00,44.9,24.3,29.35,SW,220,16.0,17.0,44,0.00,,,0.00,0,Wunderground v.1.15,2013-04-13 09:40:00,
2013-04-13 03:55:00,44.6,25.1,29.34,WSW,253,14.0,16.0,46,0.00,,,0.00,0,Wunderground v.1.15,2013-04-13 09:55:00,
2013-04-13 04:00:00,44.4,25.4,29.33,SE,140,14.0,14.0,47,0.00,,,0.00,0,Wunderground v.1.15,2013-04-13 10:00:00,
2013-04-13 04:05:00,44.2,25.7,29.34,South,185,16.0,16.0,48,0.00,,,0.00,0,Wunderground v.1.15,2013-04-13 10:05:00,
2013-04-13 04:10:00,43.9,26.0,29.34,South,189,18.0,18.0,49,0.00,,,0.00,0,Wunderground v.1.15,2013-04-13 10:10:00,
2013-04-13 04:15:00,43.4,26.5,29.35,South,175,19.0,19.0,51,0.00,,,0.00,0,Wunderground v.1.15,2013-04-13 10:15:00,
2013-04-13 04:25:00,42.2,27.6,29.34,South,185,17.0,31.0,56,0.00,,,0.00,0,Wunderground v.1.15,2013-04-13 10:25:00,
2013-04-13 04:30:00,41.7,28.4,29.34,SW,235,18.0,18.0,59,0.00,,,0.00,0,Wunderground v.1.15,2013-04-13 10:30:00,
2013-04-13 04:40:00,40.4,29.2,29.33,South,175,18.0,18.0,64,0.00,,,0.00,0,Wunderground v.1.15,2013-04-13 10:40:00,
2013-04-13 04:50:00,39.9,29.1,29.34,SW,223,20.0,20.0,65,0.00,,,0.00,0,Wunderground v.1.15,2013-04-13 10:50:00,
2013-04-13 04:55:00,40.1,28.9,29.33,WSW,244,21.0,21.0,64,0.00,,,0.00,0,Wunderground v.1.15,2013-04-13 10:55:00,
2013-04-13 05:00:00,40.2,29.0,29.33,SSE,152,18.0,18.0,64,0.00,,,0.00,0,Wunderground v.1.15,2013-04-13 11:00:00,
2013-04-13 05:15:00,40.1,28.9,29.32,South,171,19.0,30.0,64,0.00,,,0.00,0,Wunderground v.1.15,2013-04-13 11:15:00,
2013-04-13 05:20:00,40.4,28.8,29.32,SW,224,18.0,20.0,63,0.00,,,0.00,0,Wunderground v.1.15,2013-04-13 11:20:00,
2013-04-13 05:30:00,40.7,28.7,29.32,South,175,16.0,16.0,62,0.00,,,0.00,0,Wunderground v.1.15,2013-04-13 11:30:00,
2013-04-13 05:35:00,40.9,28.5,29.32,South,185,14.0,16.0,61,0.00,,,0.00,0,Wunderground v.1.15,2013-04-13 11:35:00,
2013-04-13 05:40:00,41.0,28.6,29.33,SSW,199,16.0,16.0,61,0.00,,,0.00,0,Wunderground v.1.15,2013-04-13 11:40:00,
2013-04-13 05:45:00,40.7,28.7,29.32,WSW,257,16.0,16.0,62,0.00,,,0.00,0,Wunderground v.1.15,2013-04-13 11:45:00,
2013-04-13 05:55:00,39.9,29.5,29.33,SW,222,16.0,16.0,66,0.00,,,0.00,0,Wunderground v.1.15,2013-04-13 11:55:00,
2013-04-13 06:05:00,39.6,29.5,29.32,WSW,256,15.0,15.0,67,0.00,,,0.00,0,Wunderground v.1.15,2013-04-13 12:05:00,
2013-04-13 06:10:00,39.5,29.8,29.32,WSW,249,14.0,14.0,68,0.00,,,0.00,0,Wunderground v.1.15,2013-04-13 12:10:00,
2013-04-13 06:20:00,39.7,29.6,29.32,SW,218,15.0,15.0,67,0.00,,,0.00,0,Wunderground v.1.15,2013-04-13 12:20:00,
2013-04-13 06:25:00,39.8,29.7,29.31,WSW,238,13.0,15.0,67,0.00,,,0.00,0,Wunderground v.1.15,2013-04-13 12:25:00,
2013-04-13 06:30:00,39.8,29.7,29.32,West,260,12.0,12.0,67,0.00,,,0.00,0,Wunderground v.1.15,2013-04-13 12:30:00,
2013-04-13 06:40:00,40.1,29.6,29.31,WSW,241,13.0,13.0,66,0.00,,,0.00,0,Wunderground v.1.15,2013-04-13 12:40:00,
2013-04-13 06:50:00,40.6,29.4,29.31,WNW,288,13.0,13.0,64,0.00,,,0.00,0,Wunderground v.1.15,2013-04-13 12:50:00,
2013-04-13 06:55:00,40.6,29.4,29.30,WSW,252,13.0,13.0,64,0.00,,,0.00,7,Wunderground v.1.15,2013-04-13 12:55:00,
2013-04-13 07:00:00,40.5,29.7,29.30,SW,229,12.0,15.0,65,0.00,,,0.00,9,Wunderground v.1.15,2013-04-13 13:00:00,
2013-04-13 07:05:00,40.6,29.4,29.29,SSW,213,13.0,15.0,64,0.00,,,0.00,9,Wunderground v.1.15,2013-04-13 13:05:00,
2013-04-13 07:15:00,40.7,29.5,29.29,West,260,13.0,15.0,64,0.00,,,0.00,25,Wunderground v.1.15,2013-04-13 13:15:00,
2013-04-13 07:20:00,40.8,29.6,29.28,SW,236,13.0,13.0,64,0.00,,,0.00,25,Wunderground v.1.15,2013-04-13 13:20:00,
2013-04-13 07:25:00,40.8,29.6,29.28,WSW,241,12.0,13.0,64,0.00,,,0.00,26,Wunderground v.1.15,2013-04-13 13:25:00,
2013-04-13 07:35:00,41.0,29.7,29.28,WSW,254,13.0,20.0,64,0.00,,,0.00,28,Wunderground v.1.15,2013-04-13 13:35:00,
2013-04-13 07:40:00,40.9,29.7,29.27,WSW,251,13.0,14.0,64,0.00,,,0.00,35,Wunderground v.1.15,2013-04-13 13:40:00,
2013-04-13 07:45:00,40.9,29.7,29.27,West,264,12.0,14.0,64,0.00,,,0.00,39,Wunderground v.1.15,2013-04-13 13:45:00,
2013-04-13 07:55:00,40.8,29.9,29.27,WSW,245,13.0,16.0,65,0.00,,,0.00,39,Wunderground v.1.15,2013-04-13 13:55:00,
2013-04-13 08:00:00,40.7,29.8,29.26,SW,233,14.0,18.0,65,0.00,,,0.00,46,Wunderground v.1.15,2013-04-13 14:00:00,
2013-04-13 08:10:00,40.6,30.1,29.26,SW,224,14.0,14.0,66,0.00,,,0.00,60,Wunderground v.1.15,2013-04-13 14:10:00,
2013-04-13 08:15:00,40.7,30.2,29.25,SSW,199,13.0,17.0,66,0.00,,,0.00,53,Wunderground v.1.15,2013-04-13 14:15:00,
2013-04-13 08:20:00,40.7,30.2,29.25,SSW,208,13.0,17.0,66,0.00,,,0.00,54,Wunderground v.1.15,2013-04-13 14:20:00,
2013-04-13 08:25:00,40.6,30.5,29.25,SW,219,12.0,17.0,67,0.00,,,0.00,63,Wunderground v.1.15,2013-04-13 14:25:00,
2013-04-13 08:30:00,40.6,30.1,29.24,SW,220,13.0,13.0,66,0.00,,,0.00,72,Wunderground v.1.15,2013-04-13 14:30:00,
2013-04-13 08:40:00,40.7,30.2,29.23,WSW,240,14.0,15.0,66,0.00,,,0.00,83,Wunderground v.1.15,2013-04-13 14:40:00,
2013-04-13 08:45:00,40.8,30.3,29.23,WSW,241,15.0,23.0,66,0.00,,,0.00,97,Wunderground v.1.15,2013-04-13 14:45:00,
2013-04-13 08:55:00,41.1,30.2,29.23,WSW,239,16.0,22.0,65,0.00,,,0.00,120,Wunderground v.1.15,2013-04-13 14:55:00,
2013-04-13 09:00:00,41.2,30.3,29.22,WSW,248,15.0,15.0,65,0.00,,,0.00,123,Wunderground v.1.15,2013-04-13 15:00:00,
2013-04-13 09:15:00,41.4,30.5,29.22,SSE,164,14.0,20.0,65,0.00,,,0.00,146,Wunderground v.1.15,2013-04-13 15:15:00,
2013-04-13 09:25:00,41.4,30.5,29.21,SW,224,14.0,14.0,65,0.00,,,0.00,146,Wunderground v.1.15,2013-04-13 15:25:00,
2013-04-13 09:30:00,41.6,30.3,29.20,SW,231,14.0,14.0,64,0.00,,,0.00,160,Wunderground v.1.15,2013-04-13 15:30:00,
2013-04-13 09:40:00,42.0,30.3,29.20,SW,222,12.0,12.0,63,0.00,,,0.00,209,Wunderground v.1.15,2013-04-13 15:40:00,
2013-04-13 09:45:00,42.3,30.2,29.20,SSW,204,12.0,12.0,62,0.00,,,0.00,236,Wunderground v.1.15,2013-04-13 15:45:00,
2013-04-13 10:00:00,43.4,30.0,29.19,SW,235,12.0,12.0,59,0.00,,,0.00,237,Wunderground v.1.15,2013-04-13 16:00:00,
2013-04-13 10:10:00,43.6,29.8,29.19,WSW,243,11.0,14.0,58,0.00,,,0.00,167,Wunderground v.1.15,2013-04-13 16:10:00,
2013-04-13 10:20:00,43.7,29.9,29.18,SSW,212,11.0,19.0,58,0.00,,,0.00,209,Wunderground v.1.15,2013-04-13 16:20:00,
2013-04-13 10:30:00,43.9,30.1,29.18,SSW,199,11.0,11.0,58,0.00,,,0.00,478,Wunderground v.1.15,2013-04-13 16:30:00,
2013-04-13 10:40:00,44.7,30.8,29.18,South,191,11.0,16.0,58,0.00,,,0.00,475,Wunderground v.1.15,2013-04-13 16:40:00,
2013-04-13 10:50:00,46.1,31.3,29.17,SSW,206,9.0,9.0,56,0.00,,,0.00,752,Wunderground v.1.15,2013-04-13 16:50:00,
2013-04-13 11:10:00,47.1,29.9,29.16,South,175,14.0,14.0,51,0.00,,,0.00,942,Wunderground v.1.15,2013-04-13 17:10:00,
2013-04-13 11:20:00,47.3,29.6,29.15,SW,224,14.0,15.0,50,0.00,,,0.00,914,Wunderground v.1.15,2013-04-13 17:20:00,
2013-04-13 11:25:00,47.2,30.0,29.15,SSE,157,14.0,19.0,51,0.00,,,0.00,928,Wunderground v.1.15,2013-04-13 17:25:00,
2013-04-13 11:30:00,47.0,30.7,29.15,SSW,199,15.0,15.0,53,0.00,,,0.00,933,Wunderground v.1.15,2013-04-13 17:30:00,
2013-04-13 11:35:00,47.2,30.5,29.16,SSW,197,15.0,15.0,52,0.00,,,0.00,1025,Wunderground v.1.15,2013-04-13 17:35:00,
2013-04-13 11:45:00,43.7,29.0,29.19,West,278,19.0,31.0,56,0.00,,,0.00,234,Wunderground v.1.15,2013-04-13 17:45:00,
2013-04-13 12:00:00,39.0,28.2,29.19,NW,315,20.0,27.0,65,0.00,,,0.00,425,Wunderground v.1.15,2013-04-13 18:00:00,
2013-04-13 12:05:00,38.6,28.6,29.19,WNW,286,20.0,27.0,67,0.00,,,0.00,316,Wunderground v.1.15,2013-04-13 18:05:00,
2013-04-13 12:15:00,38.1,29.2,29.20,NNW,329,15.0,17.0,70,0.00,,,0.00,860,Wunderground v.1.15,2013-04-13 18:15:00,
2013-04-13 12:25:00,38.4,28.4,29.20,WNW,303,12.0,13.0,67,0.00,,,0.00,329,Wunderground v.1.15,2013-04-13 18:25:00,
2013-04-13 12:30:00,38.0,27.3,29.20,NW,315,15.0,32.0,65,0.00,,,0.00,253,Wunderground v.1.15,2013-04-13 18:30:00,
2013-04-13 12:35:00,37.6,27.3,29.20,WNW,299,19.0,32.0,66,0.00,,,0.00,213,Wunderground v.1.15,2013-04-13 18:35:00,
2013-04-13 12:40:00,37.4,27.4,29.20,WNW,293,20.0,20.0,67,0.00,,,0.00,128,Wunderground v.1.15,2013-04-13 18:40:00,
2013-04-13 12:45:00,36.9,27.7,29.20,NW,307,17.0,20.0,69,0.00,,,0.00,104,Wunderground v.1.15,2013-04-13 18:45:00,
2013-04-13 12:50:00,36.2,28.0,29.21,NW,326,14.0,14.0,72,0.00,,,0.00,86,Wunderground v.1.15,2013-04-13 18:50:00,
2013-04-13 12:55:00,35.9,28.4,29.21,NNE,25,8.0,14.0,74,0.00,,,0.00,84,Wunderground v.1.15,2013-04-13 18:55:00,
2013-04-13 13:05:00,35.1,28.3,29.21,SSE,147,2.0,5.0,76,0.00,,,0.00,74,Wunderground v.1.15,2013-04-13 19:05:00,
2013-04-13 13:15:00,34.9,29.0,29.22,SSE,147,1.0,1.0,79,0.00,,,0.00,69,Wunderground v.1.15,2013-04-13 19:15:00,
2013-04-13 13:25:00,34.4,29.2,29.23,SE,143,0.0,0.0,81,0.00,,,0.00,46,Wunderground v.1.15,2013-04-13 19:25:00,
2013-04-13 13:30:00,34.4,29.5,29.23,SE,143,0.0,2.0,82,0.00,,,0.00,42,Wunderground v.1.15,2013-04-13 19:30:00,
2013-04-13 13:40:00,34.1,29.5,29.23,SE,143,1.0,1.0,83,0.00,,,0.00,47,Wunderground v.1.15,2013-04-13 19:40:00,
2013-04-13 13:45:00,33.7,29.1,29.23,SE,143,0.0,1.0,83,0.00,,,0.00,37,Wunderground v.1.15,2013-04-13 19:45:00,
2013-04-13 13:55:00,33.6,29.3,29.21,SE,143,0.0,0.0,84,0.00,,,0.00,51,Wunderground v.1.15,2013-04-13 19:55:00,
2013-04-13 14:00:00,33.4,29.4,29.20,SE,143,0.0,0.0,85,0.00,,,0.00,116,Wunderground v.1.15,2013-04-13 20:00:00,
2013-04-13 14:05:00,33.6,29.6,29.21,SE,143,0.0,0.0,85,0.00,,,0.00,193,Wunderground v.1.15,2013-04-13 20:05:00,
2013-04-13 14:10:00,34.4,30.6,29.21,SE,143,0.0,1.0,86,0.00,,,0.00,410,Wunderground v.1.15,2013-04-13 20:10:00,
2013-04-13 14:15:00,34.8,31.0,29.21,SE,143,0.0,1.0,86,0.00,,,0.00,302,Wunderground v.1.15,2013-04-13 20:15:00,
2013-04-13 14:20:00,34.7,30.9,29.22,SE,143,1.0,1.0,86,0.00,,,0.00,264,Wunderground v.1.15,2013-04-13 20:20:00,
2013-04-13 14:25:00,35.0,31.2,29.22,SE,143,1.0,1.0,86,0.00,,,0.00,236,Wunderground v.1.15,2013-04-13 20:25:00,
2013-04-13 14:35:00,34.9,30.8,29.23,SE,143,0.0,1.0,85,0.00,,,0.00,153,Wunderground v.1.15,2013-04-13 20:35:00,
2013-04-13 14:45:00,34.9,30.8,29.23,SE,143,0.0,1.0,85,0.00,,,0.00,107,Wunderground v.1.15,2013-04-13 20:45:00,
2013-04-13 14:55:00,34.9,30.6,29.23,SE,143,1.0,2.0,84,0.00,,,0.00,98,Wunderground v.1.15,2013-04-13 20:55:00,
2013-04-13 15:00:00,34.9,30.6,29.23,SE,143,1.0,1.0,84,0.00,,,0.00,102,Wunderground v.1.15,2013-04-13 21:00:00,
2013-04-13 15:05:00,34.9,30.6,29.23,SE,143,0.0,1.0,84,0.00,,,0.00,121,Wunderground v.1.15,2013-04-13 21:05:00,
2013-04-13 15:10:00,34.7,30.4,29.24,SE,143,0.0,0.0,84,0.00,,,0.00,125,Wunderground v.1.15,2013-04-13 21:10:00,
2013-04-13 15:15:00,34.7,30.4,29.25,SE,143,0.0,0.0,84,0.00,,,0.01,113,Wunderground v.1.15,2013-04-13 21:15:00,
2013-04-13 15:25:00,34.4,30.1,29.24,SE,143,0.0,2.0,84,0.00,,,0.01,151,Wunderground v.1.15,2013-04-13 21:25:00,
2013-04-13 15:30:00,34.4,30.4,29.23,SE,143,2.0,2.0,85,0.00,,,0.01,139,Wunderground v.1.15,2013-04-13 21:30:00,
2013-04-13 15:40:00,34.4,30.4,29.23,SE,143,1.0,1.0,85,0.00,,,0.02,246,Wunderground v.1.15,2013-04-13 21:40:00,
2013-04-13 15:45:00,34.4,30.6,29.23,SE,143,1.0,2.0,86,0.00,,,0.02,496,Wunderground v.1.15,2013-04-13 21:45:00,
2013-04-13 15:55:00,36.6,33.4,29.22,SE,143,1.0,2.0,88,0.04,,,0.03,710,Wunderground v.1.15,2013-04-13 21:55:00,
2013-04-13 16:00:00,37.6,34.4,29.22,SE,143,2.0,2.0,88,0.07,,,0.04,847,Wunderground v.1.15,2013-04-13 22:00:00,
2013-04-13 16:05:00,38.7,35.5,29.22,SE,143,2.0,2.0,88,0.12,,,0.05,160,Wunderground v.1.15,2013-04-13 22:05:00,
2013-04-13 16:10:00,39.2,35.4,29.22,SE,143,1.0,1.0,86,0.08,,,0.06,188,Wunderground v.1.15,2013-04-13 22:10:00,
2013-04-13 16:20:00,39.7,35.0,29.22,SE,143,0.0,0.0,83,0.08,,,0.07,193,Wunderground v.1.15,2013-04-13 22:20:00,
2013-04-13 16:30:00,39.7,33.7,29.22,SE,143,0.0,0.0,79,0.04,,,0.07,149,Wunderground v.1.15,2013-04-13 22:30:00,
2013-04-13 16:35:00,39.6,33.3,29.22,SE,143,0.0,0.0,78,0.00,,,0.08,176,Wunderground v.1.15,2013-04-13 22:35:00,
2013-04-13 16:40:00,39.4,32.8,29.22,SE,143,0.0,0.0,77,0.00,,,0.08,193,Wunderground v.1.15,2013-04-13 22:40:00,
2013-04-13 16:50:00,39.3,33.3,29.22,SE,143,0.0,2.0,79,0.04,,,0.09,137,Wunderground v.1.15,2013-04-13 22:50:00,
2013-04-13 16:55:00,39.2,32.9,29.23,SE,143,1.0,2.0,78,0.04,,,0.09,139,Wunderground v.1.15,2013-04-13 22:55:00,
2013-04-13 17:05:00,38.8,28.0,29.24,WNW,285,7.0,24.0,65,0.04,,,0.09,160,Wunderground v.1.15,2013-04-13 23:05:00,
2013-04-13 17:10:00,37.9,26.0,29.26,WNW,292,18.0,18.0,62,0.00,,,0.09,135,Wunderground v.1.15,2013-04-13 23:10:00,
2013-04-13 17:20:00,35.6,27.5,29.28,WNW,301,20.0,20.0,72,0.00,,,0.09,102,Wunderground v.1.15,2013-04-13 23:20:00,
2013-04-13 17:25:00,34.4,27.0,29.29,WNW,289,18.0,20.0,74,0.00,,,0.09,97,Wunderground v.1.15,2013-04-13 23:25:00,
2013-04-13 17:30:00,33.8,27.0,29.29,West,278,15.0,18.0,76,0.00,,,0.09,77,Wunderground v.1.15,2013-04-13 23:30:00,
2013-04-13 17:40:00,33.0,26.6,29.31,NW,306,13.0,14.0,77,0.00,,,0.09,56,Wunderground v.1.15,2013-04-13 23:40:00,
2013-04-13 17:50:00,32.1,25.4,29.33,WNW,303,14.0,14.0,76,0.00,,,0.10,46,Wunderground v.1.15,2013-04-13 23:50:00,
2013-04-13 18:00:00,32.1,24.4,29.33,West,280,10.0,10.0,73,0.00,,,0.10,76,Wunderground v.1.15,2013-04-14 00:00:00,
2013-04-13 18:05:00,32.5,23.8,29.32,West,277,10.0,14.0,70,0.00,,,0.11,84,Wunderground v.1.15,2013-04-14 00:05:00,
2013-04-13 18:15:00,32.7,23.3,29.33,NW,321,13.0,19.0,68,0.05,,,0.12,104,Wunderground v.1.15,2013-04-14 00:15:00,
2013-04-13 18:20:00,32.8,23.0,29.34,West,276,15.0,16.0,67,0.05,,,0.12,107,Wunderground v.1.15,2013-04-14 00:20:00,
2013-04-13 18:25:00,32.9,23.8,29.34,WNW,282,15.0,16.0,69,0.05,,,0.12,111,Wunderground v.1.15,2013-04-14 00:25:00,
2013-04-13 18:35:00,32.9,23.1,29.35,ESE,105,6.0,10.0,67,0.00,,,0.13,97,Wunderground v.1.15,2013-04-14 00:35:00,
2013-04-13 18:40:00,32.8,22.3,29.35,WNW,291,8.0,9.0,65,0.00,,,0.13,86,Wunderground v.1.15,2013-04-14 00:40:00,
2013-04-13 18:45:00,32.9,22.0,29.36,WNW,302,10.0,10.0,64,0.00,,,0.13,54,Wunderground v.1.15,2013-04-14 00:45:00,
2013-04-13 18:55:00,32.6,21.4,29.36,NNW,328,13.0,13.0,63,0.00,,,0.13,54,Wunderground v.1.15,2013-04-14 00:55:00,
2013-04-13 19:00:00,32.1,21.7,29.37,NW,321,13.0,13.0,65,0.00,,,0.13,51,Wunderground v.1.15,2013-04-14 01:00:00,
2013-04-13 19:10:00,32.0,19.7,29.38,West,279,14.0,14.0,60,0.00,,,0.13,44,Wunderground v.1.15,2013-04-14 01:10:00,
2013-04-13 19:15:00,31.7,19.4,29.38,NNW,329,14.0,14.0,60,0.00,,,0.13,40,Wunderground v.1.15,2013-04-14 01:15:00,
2013-04-13 19:25:00,31.7,19.4,29.38,WSW,254,10.0,13.0,60,0.00,,,0.13,51,Wunderground v.1.15,2013-04-14 01:25:00,
2013-04-13 19:35:00,31.8,19.5,29.38,WSW,244,5.0,7.0,60,0.00,,,0.13,77,Wunderground v.1.15,2013-04-14 01:35:00,
2013-04-13 19:45:00,31.7,20.2,29.38,SE,131,2.0,3.0,62,0.00,,,0.13,49,Wunderground v.1.15,2013-04-14 01:45:00,
2013-04-13 19:55:00,32.5,16.8,29.39,WNW,295,3.0,10.0,52,0.00,,,0.13,16,Wunderground v.1.15,2013-04-14 01:55:00,
2013-04-13 20:00:00,32.7,17.0,29.40,West,274,6.0,8.0,52,0.00,,,0.13,11,Wunderground v.1.15,2013-04-14 02:00:00,
2013-04-13 20:05:00,32.8,17.1,29.40,SW,218,7.0,8.0,52,0.00,,,0.13,5,Wunderground v.1.15,2013-04-14 02:05:00,
2013-04-13 20:10:00,32.7,17.0,29.40,West,260,5.0,6.0,52,0.00,,,0.13,0,Wunderground v.1.15,2013-04-14 02:10:00,
2013-04-13 20:15:00,32.6,16.4,29.41,West,259,5.0,6.0,51,0.00,,,0.13,0,Wunderground v.1.15,2013-04-14 02:15:00,
2013-04-13 20:25:00,32.4,15.8,29.41,SW,220,5.0,7.0,50,0.00,,,0.13,0,Wunderground v.1.15,2013-04-14 02:25:00,
2013-04-13 20:30:00,32.3,16.2,29.42,WNW,289,6.0,8.0,51,0.00,,,0.13,0,Wunderground v.1.15,2013-04-14 02:30:00,
2013-04-13 20:40:00,32.1,16.4,29.42,WSW,249,5.0,11.0,52,0.00,,,0.13,0,Wunderground v.1.15,2013-04-14 02:40:00,
2013-04-13 20:45:00,31.9,17.5,29.42,WNW,299,6.0,11.0,55,0.00,,,0.13,0,Wunderground v.1.15,2013-04-14 02:45:00,
2013-04-13 20:50:00,31.3,18.2,29.43,WNW,299,12.0,21.0,58,0.00,,,0.13,0,Wunderground v.1.15,2013-04-14 02:50:00,
2013-04-13 20:55:00,30.8,18.1,29.44,WNW,295,15.0,21.0,59,0.00,,,0.13,0,Wunderground v.1.15,2013-04-14 02:55:00,
2013-04-13 21:00:00,30.5,18.3,29.44,WNW,293,11.0,11.0,60,0.00,,,0.13,0,Wunderground v.1.15,2013-04-14 03:00:00,
2013-04-13 21:05:00,30.3,18.5,29.43,NW,313,8.0,11.0,61,0.00,,,0.13,0,Wunderground v.1.15,2013-04-14 03:05:00,
2013-04-13 21:15:00,30.1,17.9,29.44,WNW,285,5.0,5.0,60,0.00,,,0.13,0,Wunderground v.1.15,2013-04-14 03:15:00,
2013-04-13 21:20:00,30.3,16.9,29.44,West,269,6.0,6.0,57,0.00,,,0.13,0,Wunderground v.1.15,2013-04-14 03:20:00,
2013-04-13 21:30:00,31.0,15.0,29.45,WNW,287,7.0,11.0,51,0.00,,,0.13,0,Wunderground v.1.15,2013-04-14 03:30:00,
2013-04-13 21:40:00,31.3,14.3,29.45,West,259,10.0,19.0,49,0.00,,,0.13,0,Wunderground v.1.15,2013-04-14 03:40:00,
2013-04-13 21:45:00,31.4,13.5,29.46,WSW,258,12.0,24.0,47,0.00,,,0.13,0,Wunderground v.1.15,2013-04-14 03:45:00,
2013-04-13 21:55:00,31.3,13.9,29.45,WNW,285,14.0,21.0,48,0.00,,,0.13,0,Wunderground v.1.15,2013-04-14 03:55:00,
2013-04-13 22:00:00,31.3,14.3,29.46,WSW,251,15.0,15.0,49,0.00,,,0.13,0,Wunderground v.1.15,2013-04-14 04:00:00,
2013-04-13 22:10:00,31.1,12.7,29.47,South,190,11.0,15.0,46,0.00,,,0.13,0,Wunderground v.1.15,2013-04-14 04:10:00,
2013-04-13 22:15:00,31.1,12.2,29.47,WNW,286,13.0,17.0,45,0.00,,,0.13,0,Wunderground v.1.15,2013-04-14 04:15:00,
2013-04-13 22:25:00,31.3,9.2,29.47,SW,216,15.0,15.0,39,0.00,,,0.13,0,Wunderground v.1.15,2013-04-14 04:25:00,
2013-04-13 22:30:00,31.3,9.2,29.47,SW,216,16.0,18.0,39,0.00,,,0.13,0,Wunderground v.1.15,2013-04-14 04:30:00,
2013-04-13 22:35:00,31.3,9.2,29.47,West,276,18.0,20.0,39,0.00,,,0.13,0,Wunderground v.1.15,2013-04-14 04:35:00,
2013-04-13 22:45:00,31.1,9.0,29.48,WNW,282,13.0,22.0,39,0.00,,,0.13,0,Wunderground v.1.15,2013-04-14 04:45:00,
2013-04-13 22:50:00,30.9,9.4,29.48,WSW,237,10.0,17.0,40,0.00,,,0.13,0,Wunderground v.1.15,2013-04-14 04:50:00,
2013-04-13 23:00:00,30.9,8.8,29.48,WSW,247,14.0,14.0,39,0.00,,,0.13,0,Wunderground v.1.15,2013-04-14 05:00:00,
2013-04-13 23:05:00,30.8,8.1,29.48,WSW,251,10.0,14.0,38,0.00,,,0.13,0,Wunderground v.1.15,2013-04-14 05:05:00,
2013-04-13 23:15:00,30.7,8.6,29.48,WSW,249,10.0,13.0,39,0.00,,,0.13,0,Wunderground v.1.15,2013-04-14 05:15:00,
2013-04-13 23:25:00,30.5,9.0,29.47,WSW,243,9.0,11.0,40,0.00,,,0.13,0,Wunderground v.1.15,2013-04-14 05:25:00,
2013-04-13 23:30:00,30.4,7.2,29.48,SW,216,9.0,9.0,37,0.00,,,0.13,0,Wunderground v.1.15,2013-04-14 05:30:00,
2013-04-13 23:40:00,30.1,8.7,29.48,SSW,199,10.0,10.0,40,0.00,,,0.13,0,Wunderground v.1.15,2013-04-14 05:40:00,
2013-04-13 23:45:00,30.1,9.2,29.48,SW,220,10.0,10.0,41,0.00,,,0.13,0,Wunderground v.1.15,2013-04-14 05:45:00,
2013-04-13 23:55:00,29.8,9.5,29.48,SW,222,8.0,8.0,42,0.00,,,0.13,0,Wunderground v.1.15,2013-04-14 05:55:00,